Time;durP1;ratioP1;P1;durP2;ratioP2;P2;SDS_P1;SDS_P2;PMS_P1;PMS_P2;Temp;Humidity;BMP_temperature;BMP_pressure;BME280_temperature;BME280_humidity;BME280_pressure;Samples;Min_cycle;Max_cycle;Signal;HPM_P1;HPM_P2
2021/12/11 00:01:56;;;;;;;30.10;19.92;;;;;;;2.56;67.62;98636.44;10392259;28;20049;-72
2021/12/11 00:07:02;;;;;;;33.50;21.50;;;;;;;2.56;67.39;98644.19;10392172;28;20059;-71
2021/12/11 00:12:13;;;;;;;32.25;20.77;;;;;;;2.54;67.38;98648.56;10392696;28;20049;-71
2021/12/11 00:17:25;;;;;;;27.02;17.42;;;;;;;2.56;67.07;98657.09;10392065;28;20278;-71
2021/12/11 00:22:29;;;;;;;25.55;18.33;;;;;;;2.73;66.97;98660.50;10391824;28;20049;-72
2021/12/11 00:27:34;;;;;;;27.85;19.38;;;;;;;2.78;66.67;98668.03;10391336;28;20057;-71
2021/12/11 00:32:37;;;;;;;32.22;20.38;;;;;;;2.80;66.70;98676.56;10391420;28;20045;-71
2021/12/11 00:37:39;;;;;;;27.48;18.98;;;;;;;2.77;66.66;98694.75;10391157;28;20050;-71
2021/12/11 00:42:51;;;;;;;24.52;18.05;;;;;;;2.68;66.67;98705.53;10391333;28;20060;-71
2021/12/11 00:48:00;;;;;;;25.92;17.83;;;;;;;2.66;66.51;98721.06;10390483;28;20520;-71
2021/12/11 00:53:10;;;;;;;21.30;15.80;;;;;;;2.46;66.77;98744.38;10390458;28;20379;-71
2021/12/11 00:58:19;;;;;;;21.25;15.10;;;;;;;2.47;66.98;98743.50;10390377;28;20057;-71
2021/12/11 01:03:29;;;;;;;21.80;15.82;;;;;;;2.55;66.70;98759.47;10389218;28;20053;-71
2021/12/11 01:08:36;;;;;;;21.10;14.32;;;;;;;2.44;66.55;98763.47;10390266;28;20427;-71
2021/12/11 01:13:46;;;;;;;19.15;15.10;;;;;;;2.45;66.71;98773.69;10389161;28;20072;-71
2021/12/11 01:18:55;;;;;;;23.15;16.48;;;;;;;2.60;66.58;98793.63;10389724;28;20607;-71
2021/12/11 01:29:05;;;;;;;19.63;15.60;;;;;;;2.41;66.73;98823.78;10389323;28;20124;-71
2021/12/11 01:34:08;;;;;;;22.83;16.13;;;;;;;2.38;66.82;98831.63;10389252;28;20041;-71
2021/12/11 01:39:16;;;;;;;23.88;17.70;;;;;;;2.41;66.86;98841.81;10388669;28;20517;-72
2021/12/11 01:44:31;;;;;;;23.77;16.25;;;;;;;2.48;66.70;98856.13;10388164;28;20446;-71
2021/12/11 01:49:33;;;;;;;25.80;19.92;;;;;;;2.56;66.49;98874.69;10388592;28;20049;-71
2021/12/11 01:54:39;;;;;;;24.60;18.83;;;;;;;2.60;66.47;98886.53;10388340;28;20049;-71
2021/12/11 01:59:44;;;;;;;30.10;23.08;;;;;;;2.67;66.56;98893.13;10388091;28;20201;-71
2021/12/11 02:04:50;;;;;;;27.92;20.02;;;;;;;2.72;66.18;98911.84;10388493;28;20049;-71
2021/12/11 02:09:57;;;;;;;33.00;23.02;;;;;;;2.72;66.07;98918.75;10387685;28;20657;-71
2021/12/11 02:15:02;;;;;;;33.80;24.85;;;;;;;2.58;66.37;98929.66;10386282;28;20059;-71
2021/12/11 02:20:08;;;;;;;42.15;29.17;;;;;;;2.68;66.35;98941.25;10386382;28;20132;-71
2021/12/11 02:25:21;;;;;;;40.53;26.95;;;;;;;2.67;66.67;98943.91;10387297;28;20053;-71
2021/12/11 02:30:38;;;;;;;38.35;27.40;;;;;;;2.50;66.91;98961.88;10386600;28;20481;-71
2021/12/11 02:35:51;;;;;;;40.92;27.67;;;;;;;2.45;67.02;98972.38;10386764;28;20081;-71
2021/12/11 02:41:14;;;;;;;37.80;27.63;;;;;;;2.50;67.18;98973.00;10385861;28;20440;-71
2021/12/11 02:46:42;;;;;;;35.50;26.92;;;;;;;2.59;67.03;98985.53;10384560;28;20046;-71
2021/12/11 02:51:46;;;;;;;35.90;26.92;;;;;;;2.71;67.04;98997.94;10386319;28;20053;-71
2021/12/11 02:56:55;;;;;;;42.28;29.20;;;;;;;2.79;67.17;99000.16;10385611;28;20058;-71
2021/12/11 03:02:08;;;;;;;36.28;27.02;;;;;;;2.82;66.59;99012.97;10387673;28;20049;-71
2021/12/11 03:07:13;;;;;;;34.97;26.05;;;;;;;2.75;66.74;99012.38;10392836;28;20046;-71
2021/12/11 03:12:15;;;;;;;33.63;26.02;;;;;;;2.78;66.80;99019.16;10393226;28;20513;-71
2021/12/11 03:17:20;;;;;;;38.20;27.98;;;;;;;2.80;67.06;99027.69;10392490;28;20058;-71
2021/12/11 03:22:30;;;;;;;40.03;29.02;;;;;;;2.80;66.95;99045.75;10392693;28;20049;-72
2021/12/11 03:27:32;;;;;;;40.60;28.98;;;;;;;2.84;67.09;99058.47;10391935;28;20071;-71
2021/12/11 03:32:35;;;;;;;38.97;29.73;;;;;;;2.83;66.78;99064.53;10392103;28;20057;-71
2021/12/11 03:37:36;;;;;;;39.85;29.10;;;;;;;2.90;66.67;99078.03;10391764;28;20053;-71
2021/12/11 03:42:40;;;;;;;44.67;31.45;;;;;;;2.80;66.65;99085.34;10392260;28;20361;-71
2021/12/11 03:47:56;;;;;;;46.15;32.67;;;;;;;2.85;66.68;99098.88;10392075;28;20067;-71
2021/12/11 03:52:58;;;;;;;45.50;31.17;;;;;;;2.76;66.64;99099.28;10391876;28;20052;-70
2021/12/11 03:58:01;;;;;;;45.45;30.35;;;;;;;2.80;66.70;99110.31;10390531;28;20049;-71
2021/12/11 04:03:06;;;;;;;48.10;30.40;;;;;;;2.69;66.84;99115.91;10389461;28;20051;-71
2021/12/11 04:08:11;;;;;;;46.40;30.55;;;;;;;2.72;66.73;99118.38;10386274;28;20059;-71
2021/12/11 04:13:14;;;;;;;41.10;29.13;;;;;;;2.61;66.85;99124.84;10384390;28;20482;-70
2021/12/11 04:18:16;;;;;;;47.22;31.10;;;;;;;2.47;67.13;99135.75;10384286;28;20065;-71
2021/12/11 04:23:19;;;;;;;44.08;30.58;;;;;;;2.52;66.94;99140.72;10383925;28;20052;-70
2021/12/11 04:28:29;;;;;;;45.75;29.10;;;;;;;2.54;66.96;99155.22;10384840;28;20498;-71
2021/12/11 04:33:40;;;;;;;45.63;29.42;;;;;;;2.52;66.87;99164.78;10383998;28;20053;-71
2021/12/11 04:38:43;;;;;;;50.17;30.48;;;;;;;2.48;67.14;99180.47;10386223;28;20086;-71
2021/12/11 04:43:48;;;;;;;42.95;30.75;;;;;;;2.53;67.08;99181.09;10391706;28;20045;-70
2021/12/11 04:49:04;;;;;;;45.25;30.13;;;;;;;2.57;67.04;99191.25;10391829;28;20060;-71
2021/12/11 04:54:25;;;;;;;48.83;31.33;;;;;;;2.60;67.08;99200.63;10391567;28;20505;-70
2021/12/11 05:05:06;;;;;;;53.50;33.30;;;;;;;2.55;67.16;99218.00;10390183;28;20056;-70
2021/12/11 05:10:29;;;;;;;51.03;32.20;;;;;;;2.46;67.33;99223.53;10390563;28;20045;-71
2021/12/11 05:15:35;;;;;;;55.13;32.13;;;;;;;2.37;67.42;99234.19;10388906;28;20410;-71
2021/12/11 05:20:38;;;;;;;54.90;31.85;;;;;;;2.10;67.69;99243.81;10390065;28;20064;-71
2021/12/11 05:25:40;;;;;;;56.38;32.03;;;;;;;1.98;67.95;99262.31;10390060;28;20132;-71
2021/12/11 05:30:46;;;;;;;56.20;33.47;;;;;;;1.83;68.22;99271.41;10390062;28;20051;-71
2021/12/11 05:35:48;;;;;;;56.25;32.03;;;;;;;1.78;68.12;99285.38;10389535;28;20056;-70
2021/12/11 05:40:59;;;;;;;65.47;36.33;;;;;;;1.74;68.40;99294.94;10389400;28;20052;-70
2021/12/11 05:46:01;;;;;;;64.27;37.67;;;;;;;1.68;68.32;99299.47;10389570;28;20060;-71
2021/12/11 05:51:07;;;;;;;68.32;38.60;;;;;;;1.75;68.36;99311.22;10388964;28;20060;-71
2021/12/11 05:56:11;;;;;;;69.38;38.95;;;;;;;1.94;68.44;99317.44;10388572;28;20050;-71
2021/12/11 06:01:23;;;;;;;63.80;36.45;;;;;;;2.12;68.13;99327.13;10389334;28;20204;-70
2021/12/11 06:06:30;;;;;;;56.13;32.97;;;;;;;2.21;67.95;99347.44;10388574;28;20099;-71
2021/12/11 06:11:35;;;;;;;49.35;32.88;;;;;;;2.35;67.96;99359.84;10387434;28;20504;-71
2021/12/11 06:16:38;;;;;;;48.83;29.85;;;;;;;2.35;67.23;99376.19;10387943;28;20060;-70
2021/12/11 06:21:43;;;;;;;49.15;29.73;;;;;;;2.54;66.91;99386.69;10388084;28;20049;-70
2021/12/11 06:26:45;;;;;;;49.17;29.55;;;;;;;2.66;66.54;99381.91;10387992;28;20058;-70
2021/12/11 06:31:47;;;;;;;54.33;30.67;;;;;;;2.77;66.72;99404.75;10385955;28;20057;-71
2021/12/11 06:36:49;;;;;;;46.88;29.85;;;;;;;2.88;66.32;99405.22;10387845;28;20324;-71
2021/12/11 06:41:57;;;;;;;45.10;28.83;;;;;;;2.90;66.05;99426.66;10387328;28;20133;-70
2021/12/11 06:47:01;;;;;;;49.72;28.65;;;;;;;2.91;66.06;99429.19;10385855;28;20215;-71
2021/12/11 06:52:08;;;;;;;46.97;29.65;;;;;;;2.90;66.00;99443.00;10386305;28;20128;-71
2021/12/11 06:57:10;;;;;;;48.40;30.08;;;;;;;3.05;65.62;99465.69;10386275;28;20062;-71
2021/12/11 07:02:12;;;;;;;46.83;27.88;;;;;;;3.10;65.40;99486.19;10386771;28;20049;-71
2021/12/11 07:07:20;;;;;;;48.15;28.42;;;;;;;3.07;65.20;99494.88;10384758;28;20045;-71
2021/12/11 07:12:22;;;;;;;46.78;27.77;;;;;;;3.03;65.19;99505.38;10386160;28;20056;-71
2021/12/11 07:17:24;;;;;;;47.17;29.88;;;;;;;3.01;65.35;99513.19;10384199;28;20057;-71
2021/12/11 07:22:25;;;;;;;48.85;29.88;;;;;;;3.09;65.22;99527.59;10385512;28;20064;-70
2021/12/11 07:27:29;;;;;;;48.03;29.98;;;;;;;3.12;65.16;99541.22;10385811;28;20421;-70
2021/12/11 07:32:30;;;;;;;45.45;27.65;;;;;;;2.90;64.92;99550.63;10385551;28;20053;-71
2021/12/11 07:37:33;;;;;;;50.58;28.58;;;;;;;2.92;65.05;99560.03;10385303;28;20053;-71
2021/12/11 07:42:36;;;;;;;45.22;27.65;;;;;;;3.00;64.66;99572.66;10385198;28;20762;-70
2021/12/11 07:47:38;;;;;;;52.78;27.95;;;;;;;3.10;64.47;99578.34;10385361;28;20135;-71
2021/12/11 07:52:40;;;;;;;49.58;28.45;;;;;;;3.17;64.44;99585.00;10384398;28;20053;-71
2021/12/11 07:57:43;;;;;;;47.88;28.45;;;;;;;3.28;64.30;99596.63;10384743;28;20045;-70
2021/12/11 08:02:46;;;;;;;55.60;29.02;;;;;;;3.37;64.02;99608.38;10383556;28;20501;-70
2021/12/11 08:07:49;;;;;;;49.28;28.50;;;;;;;3.41;63.86;99615.13;10384767;28;20053;-70
2021/12/11 08:12:50;;;;;;;52.72;28.73;;;;;;;3.41;63.70;99621.16;10386027;28;20056;-70
2021/12/11 08:17:54;;;;;;;56.88;29.77;;;;;;;3.57;63.71;99626.59;10392868;28;20065;-70
2021/12/11 08:22:57;;;;;;;53.20;30.63;;;;;;;3.60;63.56;99631.69;10392611;28;20124;-71
2021/12/11 08:27:59;;;;;;;53.30;31.33;;;;;;;3.68;63.50;99645.19;10392348;28;20540;-71
2021/12/11 08:33:02;;;;;;;55.33;31.75;;;;;;;3.70;63.39;99654.53;10392980;28;20701;-71
2021/12/11 08:38:06;;;;;;;60.03;30.67;;;;;;;3.70;63.04;99677.00;10390884;28;20057;-70
2021/12/11 08:43:10;;;;;;;55.85;30.15;;;;;;;3.70;63.42;99689.94;10392091;28;20045;-71
2021/12/11 08:48:19;;;;;;;47.17;29.20;;;;;;;3.71;63.05;99701.94;10389868;28;20075;-71
2021/12/11 08:53:21;;;;;;;50.45;28.85;;;;;;;3.86;62.89;99715.19;10391273;28;20053;-70
2021/12/11 08:58:25;;;;;;;51.13;30.40;;;;;;;3.84;62.46;99721.34;10391021;28;20057;-71
2021/12/11 09:03:32;;;;;;;55.63;31.38;;;;;;;3.96;63.27;99728.66;10391211;28;20532;-70
2021/12/11 09:08:57;;;;;;;52.75;30.17;;;;;;;4.04;63.06;99734.41;10389933;28;20072;-71
2021/12/11 09:14:16;;;;;;;55.65;31.13;;;;;;;4.11;62.46;99746.22;10391079;28;20516;-71
2021/12/11 09:19:54;;;;;;;54.67;30.13;;;;;;;4.09;62.86;99755.78;10390483;28;20765;-70
2021/12/11 09:25:23;;;;;;;53.25;29.65;;;;;;;4.12;63.08;99766.03;10388181;28;20531;-71
2021/12/11 09:30:28;;;;;;;49.67;30.08;;;;;;;4.22;63.20;99772.56;10379980;28;20053;-73
2021/12/11 09:35:35;;;;;;;59.58;32.65;;;;;;;4.36;63.23;99775.47;10389837;28;20048;-73
2021/12/11 09:40:36;;;;;;;56.45;32.17;;;;;;;4.40;63.25;99786.56;10389658;28;20055;-73
2021/12/11 09:45:42;;;;;;;51.13;32.08;;;;;;;4.36;63.03;99793.59;10389165;28;20053;-73
2021/12/11 09:50:54;;;;;;;52.15;30.90;;;;;;;4.28;63.03;99803.41;10389779;28;20491;-71
2021/12/11 09:55:57;;;;;;;51.85;30.38;;;;;;;4.28;62.91;99813.75;10389376;28;20056;-72
2021/12/11 10:01:08;;;;;;;30.30;17.95;;;;;;;4.08;60.94;99808.44;10388811;28;20049;-71
2021/12/11 10:06:26;;;;;;;29.98;17.52;;;;;;;4.03;61.94;99812.91;10378570;28;20772;-72
2021/12/11 10:11:30;;;;;;;28.13;16.83;;;;;;;4.26;61.06;99812.97;10379997;28;20045;-72
2021/12/11 10:16:36;;;;;;;26.27;16.63;;;;;;;4.42;60.28;99816.69;10377648;28;20064;-72
2021/12/11 10:21:43;;;;;;;29.63;18.52;;;;;;;4.54;60.29;99811.03;10384467;28;20061;-72
2021/12/11 10:26:50;;;;;;;30.23;19.25;;;;;;;4.91;60.03;99814.84;10386147;28;20379;-73
2021/12/11 10:32:05;;;;;;;31.17;19.48;;;;;;;5.03;59.47;99825.56;10378780;28;20057;-72
2021/12/11 10:37:15;;;;;;;25.25;16.23;;;;;;;4.86;59.17;99827.13;10385161;28;20433;-72
2021/12/11 10:42:18;;;;;;;31.27;20.52;;;;;;;4.96;59.49;99836.25;10376756;28;20055;-72
2021/12/11 10:47:51;;;;;;;31.55;19.10;;;;;;;5.08;59.04;99839.22;10385582;28;20418;-72
2021/12/11 10:52:53;;;;;;;33.22;21.65;;;;;;;5.13;59.60;99854.56;10381486;28;20073;-72
2021/12/11 10:57:59;;;;;;;35.15;23.65;;;;;;;5.13;59.69;99852.81;10383670;28;20504;-72
2021/12/11 11:03:01;;;;;;;35.72;23.73;;;;;;;4.93;60.07;99852.75;10373551;28;20053;-73
2021/12/11 11:08:06;;;;;;;40.92;25.10;;;;;;;4.88;59.89;99859.00;10377745;28;20042;-73
2021/12/11 11:13:12;;;;;;;39.65;24.23;;;;;;;4.82;60.52;99859.25;10380397;28;20049;-73
2021/12/11 11:18:18;;;;;;;33.05;20.88;;;;;;;4.85;60.43;99861.69;10383714;28;20065;-73
2021/12/11 11:23:20;;;;;;;36.20;23.17;;;;;;;4.97;60.37;99859.50;10382916;28;20071;-72
2021/12/11 11:28:27;;;;;;;30.15;18.77;;;;;;;4.78;60.82;99866.25;10381127;28;20303;-72
2021/12/11 11:33:31;;;;;;;32.03;20.00;;;;;;;4.63;61.57;99867.69;10384591;28;20046;-72
2021/12/11 11:38:35;;;;;;;32.58;21.45;;;;;;;4.51;62.37;99873.31;10382763;28;20076;-73
2021/12/11 11:43:38;;;;;;;32.25;21.20;;;;;;;4.83;62.04;99886.81;10382780;28;20042;-72
2021/12/11 11:48:46;;;;;;;36.28;23.13;;;;;;;4.72;62.09;99881.22;10383016;28;20045;-72
2021/12/11 11:53:50;;;;;;;33.60;21.75;;;;;;;4.53;62.70;99887.06;10384699;28;20827;-72
2021/12/11 11:58:53;;;;;;;28.60;19.02;;;;;;;4.40;62.45;99893.56;10384069;28;20152;-72
2021/12/11 12:03:55;;;;;;;27.50;18.85;;;;;;;4.45;62.37;99896.00;10384280;28;20522;-72
2021/12/11 12:08:59;;;;;;;27.88;17.42;;;;;;;4.52;62.22;99897.47;10383675;28;20059;-77
2021/12/11 12:14:04;;;;;;;24.85;17.05;;;;;;;4.49;62.40;99898.44;10380272;28;20086;-78
2021/12/11 12:19:08;;;;;;;27.58;16.48;;;;;;;4.52;62.54;99906.06;10382187;28;20111;-78
2021/12/11 12:24:10;;;;;;;24.02;15.48;;;;;;;4.45;62.26;99916.72;10382899;28;20898;-71
2021/12/11 12:29:15;;;;;;;24.15;16.42;;;;;;;4.28;62.75;99912.13;10382288;28;20505;-71
2021/12/11 12:34:20;;;;;;;22.20;15.05;;;;;;;4.36;62.60;99917.88;10381671;28;20309;-70
2021/12/11 12:39:27;;;;;;;25.15;15.80;;;;;;;4.35;62.71;99918.75;10373437;28;20136;-70
2021/12/11 12:44:31;;;;;;;25.73;16.88;;;;;;;4.36;62.96;99929.97;10377527;28;20071;-71
2021/12/11 12:49:36;;;;;;;22.33;15.48;;;;;;;4.29;63.11;99931.09;10382285;28;20060;-70
2021/12/11 12:54:38;;;;;;;25.17;16.15;;;;;;;4.29;63.44;99929.31;10382677;28;20059;-71
2021/12/11 12:59:50;;;;;;;23.85;16.23;;;;;;;4.40;63.46;99934.13;10384148;28;20053;-71
2021/12/11 13:04:58;;;;;;;26.02;16.55;;;;;;;4.39;63.58;99935.88;10389594;28;20041;-71
2021/12/11 13:10:32;;;;;;;24.00;16.38;;;;;;;4.40;63.66;99953.13;10390308;28;20057;-71
2021/12/11 13:15:47;;;;;;;26.95;16.60;;;;;;;4.37;64.01;99950.63;10386064;28;20091;-71
2021/12/11 13:21:05;;;;;;;25.65;16.10;;;;;;;4.47;64.05;99953.75;10387422;28;20313;-71
2021/12/11 13:26:09;;;;;;;26.58;16.42;;;;;;;4.41;63.85;99959.97;10389425;28;20046;-70
2021/12/11 13:31:15;;;;;;;25.50;16.95;;;;;;;4.40;63.96;99966.06;10385366;28;20060;-71
2021/12/11 13:36:20;;;;;;;23.67;15.68;;;;;;;4.39;64.19;99977.31;10386115;28;20067;-71
2021/12/11 13:41:39;;;;;;;25.20;16.52;;;;;;;4.36;64.24;99971.38;10386953;28;20053;-71
2021/12/11 13:46:49;;;;;;;27.60;16.25;;;;;;;4.41;64.23;99980.69;10387815;28;20073;-71
2021/12/11 13:51:52;;;;;;;23.80;16.38;;;;;;;4.32;64.32;99996.53;10388484;28;20056;-71
2021/12/11 13:57:02;;;;;;;24.30;15.23;;;;;;;4.35;64.46;100008.56;10389271;28;20038;-71
2021/12/11 14:02:04;;;;;;;25.35;15.98;;;;;;;4.36;64.43;100012.81;10386816;28;20053;-70
2021/12/11 14:07:19;;;;;;;26.05;15.85;;;;;;;4.38;64.39;100022.22;10386031;28;20073;-74
2021/12/11 14:12:24;;;;;;;26.50;15.80;;;;;;;4.28;64.74;100023.44;10386294;28;20053;-74
2021/12/11 14:17:27;;;;;;;23.42;15.18;;;;;;;4.19;64.91;100033.25;10387336;28;20053;-72
2021/12/11 14:22:29;;;;;;;23.30;14.15;;;;;;;4.14;65.20;100033.38;10385567;28;20363;-72
2021/12/11 14:27:35;;;;;;;23.80;15.73;;;;;;;4.16;65.46;100035.91;10386796;28;20085;-73
2021/12/11 14:32:42;;;;;;;26.45;16.33;;;;;;;4.18;65.69;100047.06;10385406;28;20046;-72
2021/12/11 14:37:45;;;;;;;26.10;15.60;;;;;;;4.28;65.69;100059.69;10387785;28;20506;-72
2021/12/11 14:42:48;;;;;;;26.95;15.90;;;;;;;4.34;65.88;100071.56;10385231;28;20059;-73
2021/12/11 14:47:52;;;;;;;28.80;16.45;;;;;;;4.21;66.40;100081.47;10387611;28;20405;-72
2021/12/11 14:52:53;;;;;;;26.60;16.58;;;;;;;4.08;66.69;100087.94;10388085;28;20049;-72
2021/12/11 14:57:55;;;;;;;32.22;16.17;;;;;;;4.25;66.55;100087.41;10385682;28;20410;-72
2021/12/11 15:02:58;;;;;;;26.88;16.08;;;;;;;4.22;66.69;100090.09;10386995;28;20064;-73
2021/12/11 15:08:00;;;;;;;26.77;16.42;;;;;;;4.18;66.70;100104.88;10386772;28;20140;-72
2021/12/11 15:13:03;;;;;;;26.33;14.95;;;;;;;4.09;67.13;100118.06;10386353;28;20188;-72
2021/12/11 15:18:06;;;;;;;24.13;14.90;;;;;;;4.12;67.23;100119.75;10382716;28;20053;-73
2021/12/11 15:23:11;;;;;;;28.70;14.50;;;;;;;4.21;67.13;100128.06;10384989;28;20045;-72
2021/12/11 15:28:13;;;;;;;21.38;13.55;;;;;;;4.15;67.39;100133.41;10383434;28;20059;-73
2021/12/11 15:33:14;;;;;;;23.73;14.13;;;;;;;4.18;67.46;100146.28;10385156;28;20054;-72
2021/12/11 15:38:17;;;;;;;26.83;13.77;;;;;;;4.22;67.28;100153.06;10385395;28;20064;-72
2021/12/11 15:43:22;;;;;;;21.15;12.48;;;;;;;4.09;67.74;100149.13;10382904;28;20493;-72
2021/12/11 15:48:25;;;;;;;23.25;13.00;;;;;;;4.13;67.74;100155.09;10382983;28;20045;-72
2021/12/11 15:53:28;;;;;;;20.48;12.57;;;;;;;4.09;67.91;100169.84;10385734;28;20049;-73
2021/12/11 15:58:32;;;;;;;22.35;12.05;;;;;;;4.11;67.93;100181.00;10384382;28;20148;-73
2021/12/11 16:03:35;;;;;;;18.88;10.57;;;;;;;4.01;68.28;100189.06;10384173;28;20053;-73
2021/12/11 16:08:37;;;;;;;19.13;11.70;;;;;;;3.98;68.58;100190.03;10384777;28;20782;-72
2021/12/11 16:13:39;;;;;;;17.13;10.65;;;;;;;4.01;68.44;100192.50;10384610;28;20566;-73
2021/12/11 16:18:42;;;;;;;16.70;10.68;;;;;;;4.03;68.16;100200.25;10384229;28;20053;-72
2021/12/11 16:23:55;;;;;;;15.95;9.93;;;;;;;3.90;69.00;100215.28;10383678;28;20053;-72
2021/12/11 16:29:03;;;;;;;20.17;11.80;;;;;;;3.96;68.80;100219.41;10383810;28;20049;-72
2021/12/11 16:34:09;;;;;;;15.98;10.68;;;;;;;4.02;68.56;100234.78;10384210;28;20136;-72
2021/12/11 16:39:18;;;;;;;17.95;11.68;;;;;;;4.00;68.92;100241.72;10392574;28;20099;-72
2021/12/11 16:44:24;;;;;;;17.67;11.02;;;;;;;4.02;68.78;100245.97;10390986;28;20208;-71
2021/12/11 16:49:28;;;;;;;17.83;11.57;;;;;;;4.13;68.40;100250.84;10387562;28;20413;-72
2021/12/11 16:54:33;;;;;;;19.95;11.85;;;;;;;4.14;68.58;100249.94;10384787;28;20053;-72
2021/12/11 16:59:37;;;;;;;18.60;11.20;;;;;;;4.15;68.42;100262.84;10383631;28;20601;-72
2021/12/11 17:04:40;;;;;;;19.23;11.48;;;;;;;4.17;68.30;100261.06;10387832;28;20055;-72
2021/12/11 17:09:44;;;;;;;20.73;12.23;;;;;;;4.11;68.67;100256.06;10386718;28;20083;-73
2021/12/11 17:14:52;;;;;;;17.35;10.68;;;;;;;4.19;68.43;100264.44;10383855;28;20064;-72
2021/12/11 17:19:54;;;;;;;17.05;10.50;;;;;;;4.25;68.35;100282.41;10382084;28;20064;-72
2021/12/11 17:24:56;;;;;;;16.55;9.95;;;;;;;4.27;68.13;100274.59;10384578;28;20049;-72
2021/12/11 17:29:58;;;;;;;16.25;11.07;;;;;;;4.32;67.79;100285.66;10381787;28;20831;-72
2021/12/11 17:35:00;;;;;;;20.85;14.77;;;;;;;4.44;67.74;100291.34;10382489;28;20045;-72
2021/12/11 17:40:05;;;;;;;18.67;10.77;;;;;;;4.40;67.83;100307.84;10385619;28;20061;-72
2021/12/11 17:45:08;;;;;;;20.35;10.27;;;;;;;4.45;67.70;100318.09;10382819;28;20053;-72
2021/12/11 17:50:13;;;;;;;15.50;9.30;;;;;;;4.32;67.86;100330.53;10386479;28;20049;-72
2021/12/11 17:55:19;;;;;;;22.15;10.30;;;;;;;4.38;67.76;100340.72;10382983;28;20058;-72
2021/12/11 18:00:45;;;;;;;17.42;8.40;;;;;;;4.34;67.76;100341.69;10383432;28;20061;-72
2021/12/11 18:05:50;;;;;;;14.40;8.20;;;;;;;4.45;67.70;100349.16;10380487;28;20634;-72
2021/12/11 18:11:00;;;;;;;13.98;8.40;;;;;;;4.41;67.47;100358.75;10386956;28;20053;-71
2021/12/11 18:16:18;;;;;;;14.90;7.70;;;;;;;4.26;68.07;100366.94;10386577;28;20517;-72
2021/12/11 18:21:26;;;;;;;18.65;8.50;;;;;;;4.34;67.76;100370.19;10386344;28;20049;-72
2021/12/11 18:26:50;;;;;;;17.70;8.57;;;;;;;4.35;67.97;100378.81;10385616;28;20041;-72
2021/12/11 18:31:53;;;;;;;19.90;8.98;;;;;;;4.38;67.67;100376.13;10382396;28;20041;-72
2021/12/11 18:37:04;;;;;;;21.48;8.98;;;;;;;4.31;68.34;100383.19;10384622;28;20053;-70
2021/12/11 18:42:15;;;;;;;15.70;8.23;;;;;;;4.39;67.86;100386.41;10384881;28;20056;-70
2021/12/11 18:47:17;;;;;;;15.75;8.68;;;;;;;4.15;68.66;100392.25;10384483;28;20317;-69
2021/12/11 18:52:25;;;;;;;21.98;10.77;;;;;;;4.14;68.63;100392.31;10385843;28;20075;-69
2021/12/11 18:57:27;;;;;;;23.67;11.10;;;;;;;4.17;68.38;100398.25;10386333;28;20067;-69
2021/12/11 19:02:35;;;;;;;23.17;10.38;;;;;;;4.17;68.35;100405.19;10386893;28;20064;-70
2021/12/11 19:07:37;;;;;;;19.15;10.30;;;;;;;4.08;68.45;100406.28;10386523;28;20063;-70
2021/12/11 19:12:41;;;;;;;18.52;9.20;;;;;;;4.12;68.41;100409.63;10386375;28;20045;-71
2021/12/11 19:17:47;;;;;;;17.80;9.93;;;;;;;3.97;68.56;100408.25;10386623;28;20046;-70
2021/12/11 19:22:48;;;;;;;16.23;8.65;;;;;;;3.98;68.46;100412.56;10385799;28;20389;-70
2021/12/11 19:27:51;;;;;;;19.55;10.25;;;;;;;3.95;68.36;100412.63;10385336;28;20061;-70
2021/12/11 19:32:53;;;;;;;22.63;9.15;;;;;;;4.01;68.04;100428.00;10384167;28;20056;-69
2021/12/11 19:37:55;;;;;;;20.05;8.45;;;;;;;4.05;67.83;100426.22;10385739;28;20418;-69
2021/12/11 19:43:06;;;;;;;28.50;10.18;;;;;;;3.99;67.83;100436.69;10383396;28;20069;-69
2021/12/11 19:48:10;;;;;;;26.70;10.15;;;;;;;3.96;68.08;100442.81;10385258;28;20055;-69
2021/12/11 19:53:16;;;;;;;25.95;15.98;;;;;;;3.98;67.86;100446.22;10384054;28;20119;-69
2021/12/11 19:58:17;;;;;;;18.15;7.22;;;;;;;4.04;67.67;100445.19;10385628;28;20490;-68
2021/12/11 20:03:54;;;;;;;16.73;6.93;;;;;;;3.95;67.38;100464.38;10384957;28;20045;-68
2021/12/11 20:09:23;;;;;;;14.93;6.47;;;;;;;3.88;67.63;100475.78;10384740;28;20057;-69
2021/12/11 20:14:25;;;;;;;14.18;6.72;;;;;;;3.92;67.47;100490.34;10390857;28;20291;-69
2021/12/11 20:19:32;;;;;;;13.35;6.47;;;;;;;3.93;67.25;100497.22;10391828;28;20060;-69
2021/12/11 20:24:36;;;;;;;16.70;6.95;;;;;;;3.91;67.01;100501.56;10390889;28;20053;-68
2021/12/11 20:29:51;;;;;;;16.95;6.15;;;;;;;3.75;66.90;100505.38;10391070;28;20079;-69
2021/12/11 20:34:58;;;;;;;17.67;5.63;;;;;;;3.82;66.34;100509.53;10390985;28;20049;-68
2021/12/11 20:40:16;;;;;;;12.55;5.57;;;;;;;3.75;66.38;100507.97;10390791;28;20049;-68
2021/12/11 20:45:22;;;;;;;19.02;7.40;;;;;;;3.81;66.17;100513.00;10390570;28;20792;-68
2021/12/11 20:50:28;;;;;;;13.88;5.47;;;;;;;3.68;66.20;100527.94;10389003;28;20532;-69
2021/12/11 20:55:37;;;;;;;20.70;6.63;;;;;;;3.65;66.18;100540.94;10390094;28;20136;-68
2021/12/11 21:00:50;;;;;;;14.65;5.45;;;;;;;3.66;65.58;100534.06;10390215;28;20053;-69
2021/12/11 21:06:08;;;;;;;17.13;5.65;;;;;;;3.73;65.51;100543.34;10389505;28;20418;-68
2021/12/11 21:11:17;;;;;;;11.50;5.38;;;;;;;3.72;65.30;100554.59;10389615;28;20056;-68
2021/12/11 21:16:32;;;;;;;16.52;6.40;;;;;;;3.62;65.40;100564.28;10390677;28;20068;-68
2021/12/11 21:21:40;;;;;;;14.23;6.03;;;;;;;3.47;65.40;100566.34;10389095;28;20053;-68
2021/12/11 21:26:42;;;;;;;17.08;6.57;;;;;;;3.28;65.78;100565.00;10389620;28;20076;-69
2021/12/11 21:31:57;;;;;;;13.70;6.13;;;;;;;3.18;65.75;100571.25;10389402;28;20107;-69
2021/12/11 21:37:03;;;;;;;16.60;5.80;;;;;;;2.99;66.13;100576.78;10389308;28;20132;-69
2021/12/11 21:42:14;;;;;;;12.63;5.60;;;;;;;2.86;65.94;100587.38;10387715;28;20057;-69
2021/12/11 21:47:32;;;;;;;15.43;7.30;;;;;;;2.78;65.93;100577.19;10389218;28;20049;-69
2021/12/11 21:52:39;;;;;;;24.85;13.07;;;;;;;2.66;66.13;100579.94;10389284;28;20060;-69
2021/12/11 21:57:41;;;;;;;17.55;6.78;;;;;;;2.60;66.28;100605.06;10388480;28;20049;-69
2021/12/11 22:02:50;;;;;;;13.38;5.97;;;;;;;2.54;66.08;100602.56;10388482;28;20059;-69
2021/12/11 22:07:51;;;;;;;15.15;6.25;;;;;;;2.49;66.50;100620.72;10388445;28;20057;-68
2021/12/11 22:12:54;;;;;;;18.88;7.93;;;;;;;2.43;66.39;100618.22;10387343;28;20056;-68
2021/12/11 22:17:56;;;;;;;29.13;9.95;;;;;;;2.39;66.34;100616.56;10387324;28;20398;-68
2021/12/11 22:23:00;;;;;;;20.30;8.73;;;;;;;2.37;66.41;100620.03;10387370;28;20060;-69
2021/12/11 22:28:04;;;;;;;20.65;9.82;;;;;;;2.31;66.40;100628.75;10387053;28;20059;-68
2021/12/11 22:33:08;;;;;;;26.92;13.48;;;;;;;2.26;66.60;100629.66;10386718;28;20264;-69
2021/12/11 22:38:13;;;;;;;34.03;13.77;;;;;;;2.16;66.68;100628.97;10387462;28;20054;-69
2021/12/11 22:43:19;;;;;;;29.83;10.95;;;;;;;2.06;66.93;100641.16;10386138;28;20056;-68
2021/12/11 22:48:25;;;;;;;12.98;4.93;;;;;;;2.04;66.79;100649.78;10386072;28;20533;-68
2021/12/11 22:53:32;;;;;;;15.57;5.55;;;;;;;1.94;67.10;100664.53;10385149;28;20312;-68
2021/12/11 22:58:44;;;;;;;19.45;6.53;;;;;;;1.83;67.26;100671.53;10385597;28;20049;-68
2021/12/11 23:03:50;;;;;;;15.70;5.22;;;;;;;1.79;67.19;100685.34;10386344;28;20389;-68
2021/12/11 23:08:55;;;;;;;13.75;5.30;;;;;;;1.71;67.43;100678.56;10386377;28;20053;-68
2021/12/11 23:14:08;;;;;;;14.23;5.45;;;;;;;1.67;67.49;100677.75;10385753;28;20041;-68
2021/12/11 23:19:12;;;;;;;18.52;5.63;;;;;;;1.68;67.28;100665.72;10383785;28;20057;-68
2021/12/11 23:24:24;;;;;;;14.65;5.10;;;;;;;1.57;67.17;100654.69;10383916;28;20561;-68
2021/12/11 23:29:34;;;;;;;16.15;5.93;;;;;;;1.50;67.34;100655.63;10384436;28;20045;-68
2021/12/11 23:34:46;;;;;;;18.75;5.90;;;;;;;1.47;67.35;100663.38;10382968;28;20049;-68